createdAt,value
2023-05-09T00:00:40.901Z,6.60
2023-05-09T00:03:08.947Z,6.60
2023-05-09T00:05:38.338Z,7.07
2023-05-09T00:08:06.673Z,7.63
2023-05-09T00:10:34.715Z,7.17
2023-05-09T00:13:02.610Z,6.87
2023-05-09T00:15:30.581Z,7.40
2023-05-09T00:17:58.547Z,7.53
2023-05-09T00:20:26.447Z,6.83
2023-05-09T00:22:56.394Z,7.40
2023-05-09T00:25:24.350Z,7.33
2023-05-09T00:27:52.208Z,7.67
2023-05-09T00:30:20.218Z,7.90
2023-05-09T00:32:48.134Z,7.70
2023-05-09T00:35:16.413Z,7.23
2023-05-09T00:37:44.535Z,7.17
2023-05-09T00:40:14.546Z,7.00
2023-05-09T00:42:42.397Z,7.60
2023-05-09T00:45:11.374Z,7.73
2023-05-09T00:47:39.611Z,7.57
2023-05-09T00:50:08.682Z,7.33
2023-05-09T00:52:37.507Z,7.90
2023-05-09T00:55:08.372Z,7.80
2023-05-09T00:57:38.294Z,7.20
2023-05-09T01:00:13.169Z,8.00
2023-05-09T01:02:42.067Z,7.80
2023-05-09T01:05:10.786Z,6.90
2023-05-09T01:07:44.689Z,7.70
2023-05-09T01:10:22.123Z,8.00
2023-05-09T01:12:57.439Z,7.57
2023-05-09T01:15:30.796Z,7.43
2023-05-09T01:18:03.306Z,7.63
2023-05-09T01:20:35.768Z,7.63
2023-05-09T01:23:21.705Z,7.77
2023-05-09T01:26:01.503Z,7.60
2023-05-09T01:28:59.857Z,7.87
2023-05-09T01:31:29.854Z,7.13
2023-05-09T01:34:01.018Z,7.97
2023-05-09T01:36:33.361Z,7.70
2023-05-09T01:39:04.338Z,7.07
2023-05-09T01:41:35.557Z,7.83
2023-05-09T01:44:06.489Z,8.07
2023-05-09T01:46:37.315Z,7.50
2023-05-09T01:49:06.682Z,7.67
2023-05-09T01:51:35.919Z,8.03
2023-05-09T01:54:04.954Z,7.70
2023-05-09T01:56:33.542Z,7.30
2023-05-09T01:59:03.890Z,7.80
2023-05-09T02:01:33.037Z,8.07
2023-05-09T02:04:05.159Z,8.10
2023-05-09T02:06:33.695Z,8.30
2023-05-09T02:09:03.653Z,8.20
2023-05-09T02:11:31.663Z,7.60
2023-05-09T02:13:59.738Z,8.90
2023-05-09T02:16:27.893Z,8.37
2023-05-09T02:18:55.754Z,8.47
2023-05-09T02:21:25.884Z,8.83
2023-05-09T02:23:54.877Z,8.87
2023-05-09T02:26:22.820Z,8.13
2023-05-09T02:28:51.689Z,8.07
2023-05-09T02:31:22.121Z,7.90
2023-05-09T02:33:51.491Z,8.50
2023-05-09T02:36:20.362Z,8.07
2023-05-09T02:38:49.976Z,8.10
2023-05-09T02:41:18.384Z,9.00
2023-05-09T02:43:46.725Z,8.60
2023-05-09T02:46:14.620Z,8.30
2023-05-09T02:48:42.505Z,8.17
2023-05-09T02:51:10.388Z,9.30
2023-05-09T02:53:38.221Z,9.60
2023-05-09T02:56:08.912Z,9.07
2023-05-09T02:58:36.758Z,9.43
2023-05-09T03:01:04.655Z,8.80
2023-05-09T03:03:34.863Z,8.83
2023-05-09T03:06:02.751Z,8.57
2023-05-09T03:08:30.972Z,9.43
2023-05-09T03:10:58.818Z,9.33
2023-05-09T03:13:28.127Z,9.40
2023-05-09T03:15:56.037Z,8.83
2023-05-09T03:18:24.028Z,8.83
2023-05-09T03:20:51.883Z,8.50
2023-05-09T03:23:19.694Z,9.30
2023-05-09T03:25:47.518Z,8.37
2023-05-09T03:28:15.401Z,9.23
2023-05-09T03:30:44.613Z,8.43
2023-05-09T03:33:12.449Z,8.13
2023-05-09T03:35:40.376Z,7.77
2023-05-09T03:38:08.239Z,7.87
2023-05-09T03:40:36.086Z,6.70
2023-05-09T03:43:03.970Z,7.10
2023-05-09T03:45:31.803Z,6.90
2023-05-09T03:48:01.152Z,6.60
2023-05-09T03:50:29.256Z,6.80
2023-05-09T03:52:57.176Z,6.60
2023-05-09T03:55:24.997Z,6.17
2023-05-09T03:57:52.833Z,6.40
2023-05-09T04:00:21.845Z,6.60
2023-05-09T04:02:50.133Z,6.57
2023-05-09T04:05:19.827Z,7.03
2023-05-09T04:07:47.698Z,6.20
2023-05-09T04:10:15.542Z,7.13
2023-05-09T04:12:43.441Z,6.37
2023-05-09T04:15:12.299Z,6.87
2023-05-09T04:17:40.334Z,6.43
2023-05-09T04:20:10.836Z,7.47
2023-05-09T04:22:40.056Z,7.10
2023-05-09T04:25:12.671Z,6.70
2023-05-09T04:27:40.739Z,7.13
2023-05-09T04:30:10.455Z,6.13
2023-05-09T04:32:38.787Z,6.37
2023-05-09T04:35:08.369Z,6.27
2023-05-09T04:37:36.290Z,6.60
2023-05-09T04:40:07.425Z,6.27
2023-05-09T04:42:36.082Z,5.80
2023-05-09T04:45:04.141Z,5.87
2023-05-09T04:47:32.220Z,6.00
2023-05-09T04:50:00.127Z,6.07
2023-05-09T04:52:28.001Z,5.90
2023-05-09T04:54:55.858Z,6.60
2023-05-09T04:57:25.234Z,6.73
2023-05-09T04:59:53.118Z,6.33
2023-05-09T05:02:21.349Z,6.27
2023-05-09T05:04:49.341Z,6.23
2023-05-09T05:07:17.245Z,6.60
2023-05-09T05:09:45.106Z,5.97
2023-05-09T05:12:13.056Z,6.03
2023-05-09T05:14:42.413Z,5.80
2023-05-09T05:17:10.269Z,5.77
2023-05-09T05:19:38.088Z,4.83
2023-05-09T05:22:05.948Z,5.80
2023-05-09T05:24:33.778Z,5.90
2023-05-09T05:27:01.633Z,5.30
2023-05-09T05:29:29.559Z,5.30
2023-05-09T05:31:58.830Z,4.83
2023-05-09T05:34:26.713Z,4.90
2023-05-09T05:36:54.572Z,5.00
2023-05-09T05:39:22.547Z,5.50
2023-05-09T05:41:51.972Z,5.07
2023-05-09T05:44:19.813Z,4.97
2023-05-09T05:46:47.712Z,4.73
2023-05-09T05:49:16.935Z,4.60
2023-05-09T05:51:44.889Z,5.93
2023-05-09T05:54:12.785Z,4.83
2023-05-09T05:56:40.652Z,4.87
2023-05-09T05:59:08.523Z,5.07
2023-05-09T06:01:36.356Z,5.10
2023-05-09T06:04:04.382Z,4.27
2023-05-09T06:06:34.227Z,4.60
2023-05-09T06:09:02.089Z,4.07
2023-05-09T06:11:29.931Z,4.80
2023-05-09T06:13:57.751Z,5.27
2023-05-09T06:16:25.821Z,4.80
2023-05-09T06:18:55.760Z,5.07
2023-05-09T06:21:24.241Z,4.97
2023-05-09T06:26:24.246Z,4.17
2023-05-09T06:28:52.089Z,4.60
2023-05-09T06:31:20.145Z,4.57
2023-05-09T06:33:48.037Z,3.97
2023-05-09T06:36:16.038Z,4.00
2023-05-09T06:38:43.883Z,4.20
2023-05-09T06:41:13.224Z,4.57
2023-05-09T06:43:41.100Z,4.20
2023-05-09T06:46:08.939Z,4.00
2023-05-09T06:48:36.913Z,4.30
2023-05-09T06:51:04.874Z,4.00
2023-05-09T06:53:32.739Z,4.00
2023-05-09T06:56:00.910Z,3.85
2023-05-09T06:58:30.162Z,3.83
2023-05-09T07:00:58.115Z,4.20
2023-05-09T07:03:26.198Z,4.00
2023-05-09T07:05:56.757Z,3.95
2023-05-09T07:08:24.648Z,4.05
2023-05-09T07:10:52.500Z,3.70
2023-05-09T07:13:20.467Z,4.75
2023-05-09T07:15:49.935Z,3.65
2023-05-09T07:18:17.790Z,3.88
2023-05-09T07:20:45.694Z,4.00
2023-05-09T07:23:13.630Z,4.22
2023-05-09T07:25:41.505Z,4.03
2023-05-09T07:28:11.346Z,3.97
2023-05-09T07:30:39.315Z,3.70
2023-05-09T07:33:08.634Z,4.63
2023-05-09T07:35:36.484Z,4.05
2023-05-09T07:38:06.359Z,3.78
2023-05-09T07:40:36.483Z,4.38
2023-05-09T07:43:04.346Z,3.83
2023-05-09T07:45:32.216Z,3.90
2023-05-09T07:48:00.157Z,3.55
2023-05-09T07:50:29.636Z,7.22
2023-05-09T07:52:57.486Z,5.50
2023-05-09T07:55:25.346Z,4.07
2023-05-09T07:57:53.208Z,3.90
2023-05-09T08:00:23.950Z,4.05
2023-05-09T08:02:52.319Z,4.20
2023-05-09T08:05:20.732Z,4.25
2023-05-09T08:07:49.997Z,4.07
2023-05-09T08:10:17.846Z,3.95
2023-05-09T08:12:45.810Z,3.50
2023-05-09T08:15:14.072Z,3.67
2023-05-09T08:17:42.109Z,4.25
2023-05-09T08:20:11.585Z,4.20
2023-05-09T08:22:40.282Z,3.30
2023-05-09T08:25:10.142Z,4.53
2023-05-09T08:27:38.019Z,3.50
2023-05-09T08:30:07.097Z,3.70
2023-05-09T08:32:35.077Z,4.78
2023-05-09T08:35:03.088Z,3.50
2023-05-09T08:37:31.034Z,3.33
2023-05-09T08:39:58.895Z,5.32
2023-05-09T08:42:31.715Z,3.40
2023-05-09T08:45:00.194Z,3.80
2023-05-09T08:47:28.550Z,2.90
2023-05-09T08:49:56.546Z,3.03
2023-05-09T08:53:30.386Z,3.20
2023-05-09T08:56:00.177Z,3.22
2023-05-09T08:58:28.282Z,3.10
2023-05-09T09:00:56.627Z,2.78
2023-05-09T09:03:25.561Z,3.55
2023-05-09T09:05:55.296Z,3.33
2023-05-09T09:08:24.186Z,3.17
2023-05-09T09:10:55.225Z,3.40
2023-05-09T09:13:24.081Z,4.30
2023-05-09T09:15:56.036Z,2.95
2023-05-09T09:18:28.133Z,2.83
2023-05-09T09:20:59.071Z,2.95
2023-05-09T09:23:27.771Z,2.60
2023-05-09T09:26:02.202Z,3.00
2023-05-09T09:28:30.336Z,2.97
2023-05-09T09:30:58.489Z,4.95
2023-05-09T09:33:28.014Z,4.13
2023-05-09T09:35:57.524Z,4.13
2023-05-09T09:38:26.864Z,3.40
2023-05-09T09:40:56.084Z,3.72
2023-05-09T09:43:30.273Z,5.65
2023-05-09T09:45:58.605Z,3.38
2023-05-09T09:48:27.120Z,3.70
2023-05-09T09:50:56.952Z,3.20
2023-05-09T09:53:30.278Z,3.30
2023-05-09T09:55:58.682Z,5.22
2023-05-09T09:58:26.718Z,4.55
2023-05-09T10:01:09.582Z,3.30
2023-05-09T10:03:38.836Z,4.25
2023-05-09T10:06:07.526Z,2.90
2023-05-09T10:08:35.391Z,2.90
2023-05-09T10:11:03.285Z,2.83
2023-05-09T10:13:31.700Z,3.75
2023-05-09T10:16:00.728Z,2.60
2023-05-09T10:18:31.237Z,2.75
2023-05-09T10:21:03.633Z,4.63
2023-05-09T10:23:32.662Z,3.53
2023-05-09T10:26:07.235Z,2.95
2023-05-09T10:28:39.048Z,3.28
2023-05-09T10:31:17.513Z,3.15
2023-05-09T10:33:49.481Z,2.67
2023-05-09T10:36:20.649Z,3.00
2023-05-09T10:38:49.503Z,2.35
2023-05-09T10:41:18.817Z,2.97
2023-05-09T10:43:47.275Z,4.60
2023-05-09T10:46:15.755Z,2.60
2023-05-09T10:48:44.816Z,3.85
2023-05-09T10:51:14.743Z,3.42
2023-05-09T10:53:44.644Z,3.08
2023-05-09T10:56:24.185Z,2.55
2023-05-09T10:58:52.102Z,3.10
2023-05-09T11:01:31.843Z,3.30
2023-05-09T11:04:01.132Z,2.80
2023-05-09T11:06:49.102Z,2.85
2023-05-09T11:09:35.876Z,4.00
2023-05-09T11:12:10.951Z,4.50
2023-05-09T11:14:44.615Z,2.95
2023-05-09T11:17:14.274Z,3.15
2023-05-09T11:20:05.606Z,4.63
2023-05-09T11:22:40.549Z,3.33
2023-05-09T11:25:10.455Z,3.33
2023-05-09T11:27:42.487Z,3.08
2023-05-09T11:30:12.487Z,3.97
2023-05-09T11:32:46.205Z,3.67
2023-05-09T11:35:16.285Z,2.90
2023-05-09T11:37:51.159Z,2.97
2023-05-09T11:40:19.948Z,4.53
2023-05-09T11:42:49.919Z,2.80
2023-05-09T11:45:18.553Z,2.70
2023-05-09T11:47:47.605Z,3.25
2023-05-09T11:50:17.403Z,2.90
2023-05-09T11:52:45.308Z,3.95
2023-05-09T11:55:16.563Z,3.05
2023-05-09T11:57:47.001Z,2.92
2023-05-09T12:00:19.196Z,2.72
2023-05-09T12:02:48.015Z,3.67
2023-05-09T12:05:18.613Z,2.35
2023-05-09T12:07:47.543Z,2.97
2023-05-09T12:10:20.412Z,2.80
2023-05-09T12:12:50.522Z,3.00
2023-05-09T12:15:19.821Z,3.17
2023-05-09T12:17:51.341Z,3.25
2023-05-09T12:20:19.892Z,8.25
2023-05-09T12:22:54.215Z,2.88
2023-05-09T12:25:23.774Z,3.78
2023-05-09T12:27:54.731Z,3.35
2023-05-09T12:30:22.994Z,2.85
2023-05-09T12:32:51.112Z,2.55
2023-05-09T12:35:23.393Z,3.50
2023-05-09T12:37:59.144Z,3.85
2023-05-09T12:40:28.922Z,2.60
2023-05-09T12:43:01.010Z,2.53
2023-05-09T12:45:28.925Z,3.33
2023-05-09T12:47:58.553Z,3.40
2023-05-09T12:50:35.492Z,3.45
2023-05-09T12:53:04.568Z,2.55
2023-05-09T12:55:40.618Z,3.90
2023-05-09T12:58:08.529Z,2.58
2023-05-09T13:00:44.317Z,2.72
2023-05-09T13:03:26.083Z,2.45
2023-05-09T13:05:58.015Z,2.53
2023-05-09T13:08:26.106Z,2.83
2023-05-09T13:11:07.809Z,2.97
2023-05-09T13:13:42.905Z,2.72
2023-05-09T13:16:12.156Z,3.30
2023-05-09T13:18:42.077Z,3.17
2023-05-09T13:21:09.945Z,2.65
2023-05-09T13:23:37.803Z,3.97
2023-05-09T13:26:07.160Z,2.92
2023-05-09T13:28:35.036Z,2.58
2023-05-09T13:31:04.102Z,2.83
2023-05-09T13:33:32.032Z,3.10
2023-05-09T13:35:59.931Z,5.18
2023-05-09T13:38:30.821Z,2.67
2023-05-09T13:40:59.009Z,2.63
2023-05-09T13:43:29.017Z,3.42
2023-05-09T13:45:56.924Z,2.97
2023-05-09T13:48:24.853Z,2.50
2023-05-09T13:50:53.131Z,3.88
2023-05-09T13:53:21.278Z,2.42
2023-05-09T13:55:49.155Z,2.50
2023-05-09T13:58:16.978Z,2.80
2023-05-09T14:00:46.457Z,3.53
2023-05-09T14:03:14.339Z,2.57
2023-05-09T14:05:42.311Z,4.57
2023-05-09T14:08:10.204Z,2.50
2023-05-09T14:10:38.078Z,2.85
2023-05-09T14:13:08.453Z,4.72
2023-05-09T14:15:36.680Z,2.50
2023-05-09T14:18:06.067Z,3.78
2023-05-09T14:20:36.735Z,2.85
2023-05-09T14:23:04.639Z,3.83
2023-05-09T14:25:32.489Z,3.70
2023-05-09T14:28:00.584Z,2.90
2023-05-09T14:30:28.617Z,2.42
2023-05-09T14:32:56.436Z,4.15
2023-05-09T14:35:25.724Z,2.92
2023-05-09T14:37:53.617Z,3.00
2023-05-09T14:40:21.778Z,3.17
2023-05-09T14:42:49.653Z,2.90
2023-05-09T14:45:17.508Z,2.78
2023-05-09T14:47:45.362Z,3.80
2023-05-09T14:50:15.924Z,3.28
2023-05-09T14:52:45.519Z,3.17
2023-05-09T14:55:13.557Z,3.47
2023-05-09T14:57:41.432Z,3.28
2023-05-09T15:00:20.210Z,3.00
2023-05-09T15:02:49.486Z,3.25
2023-05-09T15:05:17.502Z,7.80
2023-05-09T15:07:47.225Z,4.25
2023-05-09T15:10:15.577Z,3.28
2023-05-09T15:12:44.923Z,5.03
2023-05-09T15:15:14.472Z,3.17
2023-05-09T15:17:42.464Z,2.95
2023-05-09T15:20:11.379Z,3.40
2023-05-09T15:22:39.362Z,3.30
2023-05-09T15:25:09.711Z,3.40
2023-05-09T15:27:37.704Z,3.28
2023-05-09T15:30:06.699Z,4.05
2023-05-09T15:32:36.102Z,3.60
2023-05-09T15:35:03.994Z,3.50
2023-05-09T15:37:33.311Z,3.95
2023-05-09T15:40:02.255Z,3.72
2023-05-09T15:42:31.507Z,3.33
2023-05-09T15:44:59.621Z,3.50
2023-05-09T15:47:27.586Z,3.42
2023-05-09T15:49:55.454Z,3.20
2023-05-09T15:52:23.320Z,5.78
2023-05-09T15:54:51.726Z,3.17
2023-05-09T15:57:19.772Z,3.03
2023-05-09T15:59:49.054Z,3.67
2023-05-09T16:02:16.961Z,4.30
2023-05-09T16:04:44.889Z,3.65
2023-05-09T16:07:12.748Z,3.55
2023-05-09T16:09:40.673Z,4.78
2023-05-09T16:12:09.373Z,3.83
2023-05-09T16:14:37.247Z,3.90
2023-05-09T16:17:06.994Z,3.90
2023-05-09T16:19:38.137Z,3.92
2023-05-09T16:22:06.184Z,3.47
2023-05-09T16:24:34.083Z,3.08
2023-05-09T16:27:02.004Z,3.55
2023-05-09T16:29:30.017Z,3.35
2023-05-09T16:31:58.252Z,4.55
2023-05-09T16:34:28.264Z,6.38
2023-05-09T16:36:56.295Z,6.40
2023-05-09T16:39:24.149Z,6.45
2023-05-09T16:41:52.006Z,5.17
2023-05-09T16:44:19.845Z,4.68
2023-05-09T16:46:48.106Z,3.30
2023-05-09T16:49:16.095Z,3.28
2023-05-09T16:51:45.433Z,4.57
2023-05-09T16:54:13.376Z,3.20
2023-05-09T16:56:41.702Z,3.57
2023-05-09T16:59:09.608Z,3.93
2023-05-09T17:01:37.796Z,3.47
2023-05-09T17:04:06.890Z,3.20
2023-05-09T17:06:34.976Z,3.40
2023-05-09T17:09:04.306Z,3.37
2023-05-09T17:11:32.278Z,4.40
2023-05-09T17:14:00.138Z,3.27
2023-05-09T17:16:28.155Z,3.30
2023-05-09T17:18:56.028Z,3.57
2023-05-09T17:21:23.860Z,3.30
2023-05-09T17:23:53.960Z,3.43
2023-05-09T17:26:23.227Z,3.23
2023-05-09T17:28:51.251Z,5.47
2023-05-09T17:31:19.173Z,3.13
2023-05-09T17:33:47.061Z,3.43
2023-05-09T17:36:14.919Z,4.07
2023-05-09T17:38:42.757Z,3.33
2023-05-09T17:41:10.614Z,3.53
2023-05-09T17:43:39.810Z,3.27
2023-05-09T17:46:08.167Z,4.77
2023-05-09T17:48:36.126Z,3.77
2023-05-09T17:51:04.484Z,3.60
2023-05-09T17:53:32.441Z,4.00
2023-05-09T17:56:00.380Z,4.97
2023-05-09T17:58:28.297Z,3.80
2023-05-09T18:00:59.488Z,3.60
2023-05-09T18:03:28.654Z,3.23
2023-05-09T18:05:57.320Z,3.37
2023-05-09T18:08:25.130Z,3.67
2023-05-09T18:10:54.538Z,3.20
2023-05-09T18:13:22.952Z,5.63
2023-05-09T18:15:50.980Z,3.57
2023-05-09T18:18:20.385Z,5.50
2023-05-09T18:20:48.259Z,3.30
2023-05-09T18:23:16.303Z,3.40
2023-05-09T18:25:44.203Z,3.47
2023-05-09T18:28:12.050Z,3.70
2023-05-09T18:30:40.060Z,4.20
2023-05-09T18:33:08.104Z,3.90
2023-05-09T18:35:37.404Z,3.30
2023-05-09T18:38:05.321Z,3.20
2023-05-09T18:40:33.183Z,3.40
2023-05-09T18:43:01.092Z,3.27
2023-05-09T18:45:29.221Z,3.13
2023-05-09T18:47:57.127Z,3.70
2023-05-09T18:50:25.041Z,3.30
2023-05-09T18:52:54.338Z,3.87
2023-05-09T18:55:22.684Z,5.53
2023-05-09T18:57:50.609Z,3.10
2023-05-09T19:00:18.594Z,3.23
2023-05-09T19:02:46.528Z,4.13
2023-05-09T19:05:14.431Z,3.07
2023-05-09T19:07:42.385Z,3.20
2023-05-09T19:10:13.181Z,3.20
2023-05-09T19:12:41.719Z,3.20
2023-05-09T19:15:11.085Z,3.30
2023-05-09T19:17:39.061Z,3.10
2023-05-09T19:20:08.548Z,4.50
2023-05-09T19:22:36.592Z,3.70
2023-05-09T19:25:04.752Z,3.67
2023-05-09T19:27:34.083Z,3.80
2023-05-09T19:30:01.967Z,3.90
2023-05-09T19:32:30.352Z,3.10
2023-05-09T19:34:58.981Z,4.10
2023-05-09T19:37:26.856Z,3.10
2023-05-09T19:39:54.732Z,4.77
2023-05-09T19:42:22.647Z,3.50
2023-05-09T19:44:52.405Z,3.43
2023-05-09T19:47:20.439Z,3.70
2023-05-09T19:49:48.265Z,3.83
2023-05-09T19:52:16.197Z,4.43
2023-05-09T19:54:44.072Z,3.53
2023-05-09T19:57:13.185Z,3.47
2023-05-09T19:59:41.051Z,3.37
2023-05-09T20:02:10.754Z,3.63
2023-05-09T20:04:38.670Z,3.77
2023-05-09T20:07:06.613Z,3.83
2023-05-09T20:09:34.438Z,3.87
2023-05-09T20:12:03.546Z,3.47
2023-05-09T20:14:31.817Z,3.67
2023-05-09T20:17:00.332Z,3.73
2023-05-09T20:19:30.388Z,3.70
2023-05-09T20:21:58.359Z,3.40
2023-05-09T20:24:26.410Z,4.13
2023-05-09T20:26:55.069Z,3.43
2023-05-09T20:29:22.995Z,3.90
2023-05-09T20:31:50.926Z,4.23
2023-05-09T20:34:20.664Z,4.03
2023-05-09T20:36:53.398Z,4.00
2023-05-09T20:39:23.199Z,3.77
2023-05-09T20:41:52.142Z,3.90
2023-05-09T20:44:20.138Z,5.47
2023-05-09T20:46:48.126Z,4.10
2023-05-09T20:49:16.007Z,4.70
2023-05-09T20:51:44.032Z,5.80
2023-05-09T20:54:13.440Z,4.40
2023-05-09T20:56:41.312Z,4.67
2023-05-09T20:59:09.190Z,3.97
2023-05-09T21:01:37.167Z,4.33
2023-05-09T21:04:05.903Z,3.50
2023-05-09T21:06:34.154Z,4.10
2023-05-09T21:09:02.033Z,4.33
2023-05-09T21:11:31.387Z,4.00
2023-05-09T21:13:59.420Z,4.17
2023-05-09T21:16:28.286Z,4.13
2023-05-09T21:18:57.338Z,4.17
2023-05-09T21:21:25.237Z,5.63
2023-05-09T21:23:53.124Z,4.30
2023-05-09T21:26:23.080Z,4.17
2023-05-09T21:28:52.454Z,4.70
2023-05-09T21:31:20.452Z,3.70
2023-05-09T21:33:48.329Z,5.17
2023-05-09T21:36:16.194Z,4.90
2023-05-09T21:38:44.054Z,5.23
2023-05-09T21:41:12.061Z,4.57
2023-05-09T21:43:39.868Z,4.70
2023-05-09T21:46:09.137Z,4.53
2023-05-09T21:48:37.079Z,4.70
2023-05-09T21:51:05.429Z,4.27
2023-05-09T21:53:33.366Z,4.67
2023-05-09T21:56:01.228Z,4.13
2023-05-09T21:58:29.113Z,5.07
2023-05-09T22:00:56.977Z,5.10
2023-05-09T22:03:26.380Z,4.67
2023-05-09T22:05:54.287Z,4.73
2023-05-09T22:08:22.133Z,4.70
2023-05-09T22:10:49.996Z,5.33
2023-05-09T22:13:17.926Z,4.97
2023-05-09T22:15:46.202Z,4.23
2023-05-09T22:18:14.111Z,6.23
2023-05-09T22:20:43.329Z,4.50
2023-05-09T22:23:11.253Z,5.00
2023-05-09T22:25:39.681Z,4.93
2023-05-09T22:28:07.505Z,5.40
2023-05-09T22:30:35.479Z,5.00
2023-05-09T22:33:03.345Z,5.77
2023-05-09T22:35:31.341Z,5.03
2023-05-09T22:38:00.837Z,6.60
2023-05-09T22:40:28.817Z,5.10
2023-05-09T22:42:56.663Z,5.60
2023-05-09T22:45:25.861Z,6.30
2023-05-09T22:47:53.750Z,4.90
2023-05-09T22:50:21.675Z,4.93
2023-05-09T22:52:49.543Z,5.33
2023-05-09T22:55:19.373Z,7.53
2023-05-09T22:57:47.458Z,5.57
2023-05-09T23:00:16.380Z,5.50
2023-05-09T23:02:44.621Z,5.40
2023-05-09T23:05:12.523Z,6.33
2023-05-09T23:07:40.408Z,5.33
2023-05-09T23:10:09.077Z,5.17
2023-05-09T23:12:38.389Z,5.70
2023-05-09T23:15:07.408Z,5.33
2023-05-09T23:17:35.538Z,5.90
2023-05-09T23:20:04.229Z,5.90
2023-05-09T23:22:32.293Z,9.60
2023-05-09T23:25:00.851Z,5.70
2023-05-09T23:27:31.240Z,5.90
2023-05-09T23:30:00.690Z,5.43
2023-05-09T23:32:28.659Z,5.27
2023-05-09T23:34:56.534Z,6.27
2023-05-09T23:37:24.407Z,5.33
2023-05-09T23:39:52.288Z,5.00
2023-05-09T23:42:20.179Z,5.20
2023-05-09T23:44:48.117Z,5.17
2023-05-09T23:47:17.463Z,5.17
2023-05-09T23:49:45.350Z,5.43
2023-05-09T23:52:13.182Z,5.47
2023-05-09T23:54:41.036Z,5.53
2023-05-09T23:57:08.992Z,5.43
2023-05-09T23:59:36.857Z,5.50
